sensor_id;sensor_type;location;lat;lon;timestamp;noise_LAeq;noise_LA_min;noise_LA_max;noise_LA01;noise_LA95
64996;Laerm;51545;51.568;6.998;2023-04-25T00:01:04;40.81;35.25;46.87;;
64996;Laerm;51545;51.568;6.998;2023-04-25T00:03:34;40.09;34.52;45.27;;
64996;Laerm;51545;51.568;6.998;2023-04-25T00:06:00;40.90;34.28;49.49;;
64996;Laerm;51545;51.568;6.998;2023-04-25T00:08:31;39.95;33.77;48.74;;
64996;Laerm;51545;51.568;6.998;2023-04-25T00:10:57;39.24;33.52;48.20;;
64996;Laerm;51545;51.568;6.998;2023-04-25T00:13:22;38.93;33.78;46.39;;
64996;Laerm;51545;51.568;6.998;2023-04-25T00:15:48;38.96;33.48;46.01;;
64996;Laerm;51545;51.568;6.998;2023-04-25T00:18:14;39.49;34.10;45.66;;
64996;Laerm;51545;51.568;6.998;2023-04-25T00:20:40;41.56;35.27;48.79;;
64996;Laerm;51545;51.568;6.998;2023-04-25T00:23:09;42.43;37.08;47.99;;
64996;Laerm;51545;51.568;6.998;2023-04-25T00:25:35;41.97;35.79;49.54;;
64996;Laerm;51545;51.568;6.998;2023-04-25T00:28:00;38.96;34.27;44.59;;
64996;Laerm;51545;51.568;6.998;2023-04-25T00:30:26;39.07;34.30;47.65;;
64996;Laerm;51545;51.568;6.998;2023-04-25T00:32:51;41.67;36.37;48.61;;
64996;Laerm;51545;51.568;6.998;2023-04-25T00:35:17;41.63;36.08;49.52;;
64996;Laerm;51545;51.568;6.998;2023-04-25T00:37:42;41.78;36.48;53.13;;
64996;Laerm;51545;51.568;6.998;2023-04-25T00:40:08;41.23;37.07;48.83;;
64996;Laerm;51545;51.568;6.998;2023-04-25T00:42:35;41.58;36.35;51.49;;
64996;Laerm;51545;51.568;6.998;2023-04-25T00:45:01;38.52;34.08;46.41;;
64996;Laerm;51545;51.568;6.998;2023-04-25T00:47:27;41.05;35.38;50.48;;
64996;Laerm;51545;51.568;6.998;2023-04-25T00:49:53;41.91;36.57;47.47;;
64996;Laerm;51545;51.568;6.998;2023-04-25T00:52:20;40.37;35.40;45.33;;
64996;Laerm;51545;51.568;6.998;2023-04-25T00:54:45;39.71;34.58;58.32;;
64996;Laerm;51545;51.568;6.998;2023-04-25T00:57:11;40.24;35.07;48.51;;
64996;Laerm;51545;51.568;6.998;2023-04-25T00:59:37;40.60;34.93;50.48;;
64996;Laerm;51545;51.568;6.998;2023-04-25T01:02:04;40.60;34.82;48.69;;
64996;Laerm;51545;51.568;6.998;2023-04-25T01:04:30;40.40;34.27;46.50;;
64996;Laerm;51545;51.568;6.998;2023-04-25T01:06:55;39.81;34.90;46.64;;
64996;Laerm;51545;51.568;6.998;2023-04-25T01:09:22;38.95;33.35;45.37;;
64996;Laerm;51545;51.568;6.998;2023-04-25T01:11:48;41.90;36.15;52.30;;
64996;Laerm;51545;51.568;6.998;2023-04-25T01:14:14;40.56;36.33;52.20;;
64996;Laerm;51545;51.568;6.998;2023-04-25T01:16:39;39.51;34.65;54.30;;
64996;Laerm;51545;51.568;6.998;2023-04-25T01:19:09;40.51;33.78;49.13;;
64996;Laerm;51545;51.568;6.998;2023-04-25T01:21:36;39.57;35.20;43.78;;
64996;Laerm;51545;51.568;6.998;2023-04-25T01:24:02;39.47;34.32;46.11;;
64996;Laerm;51545;51.568;6.998;2023-04-25T01:26:28;40.03;35.59;45.54;;
64996;Laerm;51545;51.568;6.998;2023-04-25T01:28:53;42.90;37.76;49.42;;
64996;Laerm;51545;51.568;6.998;2023-04-25T01:31:19;41.79;37.35;47.48;;
64996;Laerm;51545;51.568;6.998;2023-04-25T01:33:45;42.08;35.70;50.72;;
64996;Laerm;51545;51.568;6.998;2023-04-25T01:36:10;41.55;37.31;59.23;;
64996;Laerm;51545;51.568;6.998;2023-04-25T01:38:36;42.68;38.75;47.29;;
64996;Laerm;51545;51.568;6.998;2023-04-25T01:41:02;41.08;34.94;47.98;;
64996;Laerm;51545;51.568;6.998;2023-04-25T01:43:28;40.54;36.62;45.58;;
64996;Laerm;51545;51.568;6.998;2023-04-25T01:45:54;43.00;38.81;47.80;;
64996;Laerm;51545;51.568;6.998;2023-04-25T01:48:19;43.40;37.64;48.76;;
64996;Laerm;51545;51.568;6.998;2023-04-25T01:50:45;42.97;37.43;51.41;;
64996;Laerm;51545;51.568;6.998;2023-04-25T01:53:12;42.73;35.95;49.53;;
64996;Laerm;51545;51.568;6.998;2023-04-25T01:55:38;41.69;36.33;46.88;;
64996;Laerm;51545;51.568;6.998;2023-04-25T01:58:04;42.09;38.57;46.82;;
64996;Laerm;51545;51.568;6.998;2023-04-25T02:00:35;41.92;36.71;46.45;;
64996;Laerm;51545;51.568;6.998;2023-04-25T02:03:00;42.94;39.17;53.98;;
64996;Laerm;51545;51.568;6.998;2023-04-25T02:05:26;40.91;37.05;45.20;;
64996;Laerm;51545;51.568;6.998;2023-04-25T02:07:51;42.35;37.66;53.28;;
64996;Laerm;51545;51.568;6.998;2023-04-25T02:10:16;42.90;38.29;50.36;;
64996;Laerm;51545;51.568;6.998;2023-04-25T02:12:42;41.99;36.18;49.94;;
64996;Laerm;51545;51.568;6.998;2023-04-25T02:15:08;44.08;38.46;50.18;;
64996;Laerm;51545;51.568;6.998;2023-04-25T02:17:33;41.70;36.76;50.23;;
64996;Laerm;51545;51.568;6.998;2023-04-25T02:19:59;43.50;37.60;49.53;;
64996;Laerm;51545;51.568;6.998;2023-04-25T02:22:24;42.68;37.69;48.70;;
64996;Laerm;51545;51.568;6.998;2023-04-25T02:24:50;44.26;38.66;50.02;;
64996;Laerm;51545;51.568;6.998;2023-04-25T02:27:15;43.35;38.65;48.69;;
64996;Laerm;51545;51.568;6.998;2023-04-25T02:29:41;44.58;36.78;63.47;;
64996;Laerm;51545;51.568;6.998;2023-04-25T02:32:06;47.48;40.48;61.92;;
64996;Laerm;51545;51.568;6.998;2023-04-25T02:34:32;46.82;39.49;63.52;;
64996;Laerm;51545;51.568;6.998;2023-04-25T02:36:57;44.27;39.35;55.09;;
64996;Laerm;51545;51.568;6.998;2023-04-25T02:39:23;43.81;38.67;50.65;;
64996;Laerm;51545;51.568;6.998;2023-04-25T02:41:51;48.13;39.56;64.97;;
64996;Laerm;51545;51.568;6.998;2023-04-25T02:44:17;49.13;40.75;64.33;;
64996;Laerm;51545;51.568;6.998;2023-04-25T02:46:42;55.25;40.78;71.56;;
64996;Laerm;51545;51.568;6.998;2023-04-25T02:49:08;57.70;41.04;70.78;;
64996;Laerm;51545;51.568;6.998;2023-04-25T02:51:33;58.29;40.30;75.81;;
64996;Laerm;51545;51.568;6.998;2023-04-25T02:53:59;57.74;40.69;72.00;;
64996;Laerm;51545;51.568;6.998;2023-04-25T02:56:24;57.88;41.09;73.87;;
64996;Laerm;51545;51.568;6.998;2023-04-25T02:58:51;58.58;40.40;74.84;;
64996;Laerm;51545;51.568;6.998;2023-04-25T03:01:17;58.78;42.77;72.86;;
64996;Laerm;51545;51.568;6.998;2023-04-25T03:03:42;58.43;41.38;74.39;;
64996;Laerm;51545;51.568;6.998;2023-04-25T03:06:07;58.54;41.72;74.45;;
64996;Laerm;51545;51.568;6.998;2023-04-25T03:08:33;58.26;40.89;73.27;;
64996;Laerm;51545;51.568;6.998;2023-04-25T03:10:59;58.20;42.07;72.77;;
64996;Laerm;51545;51.568;6.998;2023-04-25T03:13:25;54.56;42.48;74.08;;
64996;Laerm;51545;51.568;6.998;2023-04-25T03:15:51;50.81;42.65;63.54;;
64996;Laerm;51545;51.568;6.998;2023-04-25T03:18:16;50.94;43.13;66.46;;
64996;Laerm;51545;51.568;6.998;2023-04-25T03:20:41;50.80;43.05;62.77;;
64996;Laerm;51545;51.568;6.998;2023-04-25T03:23:08;47.70;42.55;56.69;;
64996;Laerm;51545;51.568;6.998;2023-04-25T03:25:33;50.28;44.39;60.84;;
64996;Laerm;51545;51.568;6.998;2023-04-25T03:27:58;51.38;42.60;63.59;;
64996;Laerm;51545;51.568;6.998;2023-04-25T03:30:24;51.06;44.40;62.19;;
64996;Laerm;51545;51.568;6.998;2023-04-25T03:32:49;51.01;44.30;61.82;;
64996;Laerm;51545;51.568;6.998;2023-04-25T03:35:15;51.07;44.40;61.42;;
64996;Laerm;51545;51.568;6.998;2023-04-25T03:37:40;49.38;43.52;60.50;;
64996;Laerm;51545;51.568;6.998;2023-04-25T03:40:06;49.71;43.67;60.36;;
64996;Laerm;51545;51.568;6.998;2023-04-25T03:42:32;49.63;42.39;58.75;;
64996;Laerm;51545;51.568;6.998;2023-04-25T03:44:57;50.44;44.31;60.76;;
64996;Laerm;51545;51.568;6.998;2023-04-25T03:47:23;49.69;42.40;61.94;;
64996;Laerm;51545;51.568;6.998;2023-04-25T03:49:48;48.33;43.27;58.92;;
64996;Laerm;51545;51.568;6.998;2023-04-25T03:52:16;52.34;42.49;66.53;;
64996;Laerm;51545;51.568;6.998;2023-04-25T03:54:42;53.23;43.69;66.41;;
64996;Laerm;51545;51.568;6.998;2023-04-25T03:57:07;52.75;44.48;65.06;;
64996;Laerm;51545;51.568;6.998;2023-04-25T03:59:33;50.61;43.06;61.92;;
64996;Laerm;51545;51.568;6.998;2023-04-25T04:01:58;49.43;41.49;61.10;;
64996;Laerm;51545;51.568;6.998;2023-04-25T04:04:24;49.67;42.55;64.39;;
64996;Laerm;51545;51.568;6.998;2023-04-25T04:06:49;50.63;41.92;63.02;;
64996;Laerm;51545;51.568;6.998;2023-04-25T04:09:15;57.55;44.68;75.29;;
64996;Laerm;51545;51.568;6.998;2023-04-25T04:11:41;50.64;43.64;62.30;;
64996;Laerm;51545;51.568;6.998;2023-04-25T04:14:07;52.12;42.51;71.83;;
64996;Laerm;51545;51.568;6.998;2023-04-25T04:16:33;50.03;42.63;71.36;;
64996;Laerm;51545;51.568;6.998;2023-04-25T04:18:58;51.20;42.70;74.39;;
64996;Laerm;51545;51.568;6.998;2023-04-25T04:21:24;50.22;41.11;66.35;;
64996;Laerm;51545;51.568;6.998;2023-04-25T04:23:49;55.23;43.04;70.55;;
64996;Laerm;51545;51.568;6.998;2023-04-25T04:26:15;51.17;43.28;62.55;;
64996;Laerm;51545;51.568;6.998;2023-04-25T04:28:42;51.59;43.19;69.27;;
64996;Laerm;51545;51.568;6.998;2023-04-25T04:31:10;48.40;41.79;58.91;;
64996;Laerm;51545;51.568;6.998;2023-04-25T04:33:35;49.02;42.88;61.05;;
64996;Laerm;51545;51.568;6.998;2023-04-25T04:36:02;50.41;44.69;61.22;;
64996;Laerm;51545;51.568;6.998;2023-04-25T04:38:28;50.24;45.32;60.53;;
64996;Laerm;51545;51.568;6.998;2023-04-25T04:40:54;49.88;44.74;60.57;;
64996;Laerm;51545;51.568;6.998;2023-04-25T04:43:21;54.69;44.46;76.56;;
64996;Laerm;51545;51.568;6.998;2023-04-25T04:45:48;50.97;43.70;70.76;;
64996;Laerm;51545;51.568;6.998;2023-04-25T04:48:14;49.18;43.54;62.16;;
64996;Laerm;51545;51.568;6.998;2023-04-25T04:50:40;52.67;43.77;72.55;;
64996;Laerm;51545;51.568;6.998;2023-04-25T04:53:06;52.65;43.37;72.61;;
64996;Laerm;51545;51.568;6.998;2023-04-25T04:55:32;52.30;44.80;73.93;;
64996;Laerm;51545;51.568;6.998;2023-04-25T04:57:57;49.42;43.94;59.85;;
64996;Laerm;51545;51.568;6.998;2023-04-25T05:00:23;52.71;43.98;66.48;;
64996;Laerm;51545;51.568;6.998;2023-04-25T05:02:48;50.27;42.76;63.22;;
64996;Laerm;51545;51.568;6.998;2023-04-25T05:05:14;55.20;44.24;73.13;;
64996;Laerm;51545;51.568;6.998;2023-04-25T05:07:39;49.57;43.38;66.40;;
64996;Laerm;51545;51.568;6.998;2023-04-25T05:10:05;50.40;43.77;66.16;;
64996;Laerm;51545;51.568;6.998;2023-04-25T05:12:31;48.98;43.89;60.20;;
64996;Laerm;51545;51.568;6.998;2023-04-25T05:14:56;49.42;42.52;64.67;;
64996;Laerm;51545;51.568;6.998;2023-04-25T05:17:22;48.17;43.52;55.90;;
64996;Laerm;51545;51.568;6.998;2023-04-25T05:19:47;50.84;43.62;62.36;;
64996;Laerm;51545;51.568;6.998;2023-04-25T05:22:13;48.27;43.73;56.88;;
64996;Laerm;51545;51.568;6.998;2023-04-25T05:24:38;50.16;45.14;63.12;;
64996;Laerm;51545;51.568;6.998;2023-04-25T05:27:04;48.09;44.45;56.47;;
64996;Laerm;51545;51.568;6.998;2023-04-25T05:29:30;47.82;43.82;55.31;;
64996;Laerm;51545;51.568;6.998;2023-04-25T05:31:56;48.34;43.89;57.88;;
64996;Laerm;51545;51.568;6.998;2023-04-25T05:34:21;50.73;44.14;62.61;;
64996;Laerm;51545;51.568;6.998;2023-04-25T05:36:47;55.38;44.35;73.17;;
64996;Laerm;51545;51.568;6.998;2023-04-25T05:39:17;50.10;43.69;66.08;;
64996;Laerm;51545;51.568;6.998;2023-04-25T05:41:42;48.76;45.02;60.59;;
64996;Laerm;51545;51.568;6.998;2023-04-25T05:44:08;50.36;45.24;61.34;;
64996;Laerm;51545;51.568;6.998;2023-04-25T05:46:34;55.53;45.36;77.64;;
64996;Laerm;51545;51.568;6.998;2023-04-25T05:48:59;49.36;44.96;62.79;;
64996;Laerm;51545;51.568;6.998;2023-04-25T05:51:25;50.75;44.96;65.92;;
64996;Laerm;51545;51.568;6.998;2023-04-25T05:53:51;49.81;43.39;61.30;;
64996;Laerm;51545;51.568;6.998;2023-04-25T05:56:16;49.62;45.50;59.61;;
64996;Laerm;51545;51.568;6.998;2023-04-25T05:58:42;49.81;43.90;69.62;;
64996;Laerm;51545;51.568;6.998;2023-04-25T06:01:07;52.89;43.84;73.76;;
64996;Laerm;51545;51.568;6.998;2023-04-25T06:03:34;49.29;43.64;64.16;;
64996;Laerm;51545;51.568;6.998;2023-04-25T06:05:59;50.32;43.59;60.08;;
64996;Laerm;51545;51.568;6.998;2023-04-25T06:08:25;52.65;44.63;66.61;;
64996;Laerm;51545;51.568;6.998;2023-04-25T06:10:50;50.06;44.28;63.84;;
64996;Laerm;51545;51.568;6.998;2023-04-25T06:13:16;51.27;42.93;61.92;;
64996;Laerm;51545;51.568;6.998;2023-04-25T06:15:41;50.36;43.45;61.81;;
64996;Laerm;51545;51.568;6.998;2023-04-25T06:18:07;51.63;42.76;64.90;;
64996;Laerm;51545;51.568;6.998;2023-04-25T06:20:33;50.38;44.39;67.99;;
64996;Laerm;51545;51.568;6.998;2023-04-25T06:22:58;51.20;45.32;67.86;;
64996;Laerm;51545;51.568;6.998;2023-04-25T06:25:24;52.56;43.15;64.44;;
64996;Laerm;51545;51.568;6.998;2023-04-25T06:27:49;52.41;44.41;68.67;;
64996;Laerm;51545;51.568;6.998;2023-04-25T06:30:15;49.04;43.72;60.14;;
64996;Laerm;51545;51.568;6.998;2023-04-25T06:32:41;50.43;45.62;62.55;;
64996;Laerm;51545;51.568;6.998;2023-04-25T06:35:07;49.28;45.62;62.29;;
64996;Laerm;51545;51.568;6.998;2023-04-25T06:37:32;50.90;45.57;59.22;;
64996;Laerm;51545;51.568;6.998;2023-04-25T06:39:58;49.92;45.34;61.77;;
64996;Laerm;51545;51.568;6.998;2023-04-25T06:42:23;47.79;43.05;57.02;;
64996;Laerm;51545;51.568;6.998;2023-04-25T06:44:49;49.04;43.78;58.60;;
64996;Laerm;51545;51.568;6.998;2023-04-25T06:47:14;48.51;42.63;61.10;;
64996;Laerm;51545;51.568;6.998;2023-04-25T06:49:40;49.30;43.74;60.79;;
64996;Laerm;51545;51.568;6.998;2023-04-25T06:52:05;50.58;43.75;61.64;;
64996;Laerm;51545;51.568;6.998;2023-04-25T06:54:31;51.66;41.62;69.26;;
64996;Laerm;51545;51.568;6.998;2023-04-25T06:56:56;48.08;42.12;61.36;;
64996;Laerm;51545;51.568;6.998;2023-04-25T06:59:22;50.60;43.26;67.82;;
64996;Laerm;51545;51.568;6.998;2023-04-25T07:01:47;51.51;41.82;72.43;;
64996;Laerm;51545;51.568;6.998;2023-04-25T07:04:13;48.97;42.32;61.63;;
64996;Laerm;51545;51.568;6.998;2023-04-25T07:06:38;50.35;42.04;66.66;;
64996;Laerm;51545;51.568;6.998;2023-04-25T07:09:08;53.53;41.84;68.96;;
64996;Laerm;51545;51.568;6.998;2023-04-25T07:11:35;53.82;42.30;72.17;;
64996;Laerm;51545;51.568;6.998;2023-04-25T07:14:01;53.27;41.20;69.54;;
64996;Laerm;51545;51.568;6.998;2023-04-25T07:16:26;58.00;42.66;74.29;;
64996;Laerm;51545;51.568;6.998;2023-04-25T07:18:51;51.67;43.79;67.36;;
64996;Laerm;51545;51.568;6.998;2023-04-25T07:21:17;58.05;42.08;79.16;;
64996;Laerm;51545;51.568;6.998;2023-04-25T07:23:42;57.49;40.70;76.65;;
64996;Laerm;51545;51.568;6.998;2023-04-25T07:26:08;49.96;42.56;68.95;;
64996;Laerm;51545;51.568;6.998;2023-04-25T07:28:33;45.75;41.27;57.07;;
64996;Laerm;51545;51.568;6.998;2023-04-25T07:30:58;54.39;40.72;75.52;;
64996;Laerm;51545;51.568;6.998;2023-04-25T07:33:24;48.41;41.79;64.05;;
64996;Laerm;51545;51.568;6.998;2023-04-25T07:35:50;56.41;42.03;72.47;;
64996;Laerm;51545;51.568;6.998;2023-04-25T07:38:15;57.70;44.31;72.84;;
64996;Laerm;51545;51.568;6.998;2023-04-25T07:40:41;55.21;44.60;73.93;;
64996;Laerm;51545;51.568;6.998;2023-04-25T07:43:06;49.56;43.03;60.80;;
64996;Laerm;51545;51.568;6.998;2023-04-25T07:45:31;48.14;43.33;56.75;;
64996;Laerm;51545;51.568;6.998;2023-04-25T07:47:57;47.33;42.99;59.88;;
64996;Laerm;51545;51.568;6.998;2023-04-25T07:50:23;49.06;43.01;60.33;;
64996;Laerm;51545;51.568;6.998;2023-04-25T07:52:48;50.26;43.05;62.79;;
64996;Laerm;51545;51.568;6.998;2023-04-25T07:55:14;48.75;42.90;61.29;;
64996;Laerm;51545;51.568;6.998;2023-04-25T07:57:39;47.49;42.22;58.24;;
64996;Laerm;51545;51.568;6.998;2023-04-25T08:00:05;45.69;40.29;55.80;;
64996;Laerm;51545;51.568;6.998;2023-04-25T08:02:34;47.37;42.08;67.40;;
64996;Laerm;51545;51.568;6.998;2023-04-25T08:05:00;52.00;43.12;67.48;;
64996;Laerm;51545;51.568;6.998;2023-04-25T08:07:25;48.91;42.68;63.57;;
64996;Laerm;51545;51.568;6.998;2023-04-25T08:09:51;52.09;43.23;69.60;;
64996;Laerm;51545;51.568;6.998;2023-04-25T08:12:17;50.30;43.18;70.53;;
64996;Laerm;51545;51.568;6.998;2023-04-25T08:14:43;55.31;44.05;67.19;;
64996;Laerm;51545;51.568;6.998;2023-04-25T08:17:09;62.62;46.51;73.82;;
64996;Laerm;51545;51.568;6.998;2023-04-25T08:19:34;52.36;42.26;68.82;;
64996;Laerm;51545;51.568;6.998;2023-04-25T08:22:00;50.47;42.29;74.46;;
64996;Laerm;51545;51.568;6.998;2023-04-25T08:24:26;47.76;41.86;56.99;;
64996;Laerm;51545;51.568;6.998;2023-04-25T08:26:51;51.33;41.99;66.13;;
64996;Laerm;51545;51.568;6.998;2023-04-25T08:29:17;48.62;42.33;63.03;;
64996;Laerm;51545;51.568;6.998;2023-04-25T08:31:42;52.43;42.34;67.66;;
64996;Laerm;51545;51.568;6.998;2023-04-25T08:34:08;48.11;40.80;62.37;;
64996;Laerm;51545;51.568;6.998;2023-04-25T08:36:33;49.60;42.40;66.17;;
64996;Laerm;51545;51.568;6.998;2023-04-25T08:38:59;54.74;40.38;70.98;;
64996;Laerm;51545;51.568;6.998;2023-04-25T08:41:25;52.41;41.19;76.86;;
64996;Laerm;51545;51.568;6.998;2023-04-25T08:43:53;45.94;41.01;66.07;;
64996;Laerm;51545;51.568;6.998;2023-04-25T08:46:18;45.73;42.16;53.82;;
64996;Laerm;51545;51.568;6.998;2023-04-25T08:48:45;49.95;43.76;63.44;;
64996;Laerm;51545;51.568;6.998;2023-04-25T08:51:21;48.03;43.40;58.65;;
64996;Laerm;51545;51.568;6.998;2023-04-25T08:53:50;46.75;42.86;56.17;;
64996;Laerm;51545;51.568;6.998;2023-04-25T08:56:17;46.38;41.81;50.93;;
64996;Laerm;51545;51.568;6.998;2023-04-25T08:58:50;47.19;42.10;59.27;;
64996;Laerm;51545;51.568;6.998;2023-04-25T09:01:15;47.34;41.05;60.56;;
64996;Laerm;51545;51.568;6.998;2023-04-25T09:03:42;60.80;40.86;80.23;;
64996;Laerm;51545;51.568;6.998;2023-04-25T09:06:11;56.66;44.28;67.14;;
64996;Laerm;51545;51.568;6.998;2023-04-25T09:08:37;56.04;44.78;68.15;;
64996;Laerm;51545;51.568;6.998;2023-04-25T09:11:06;49.55;42.69;69.42;;
64996;Laerm;51545;51.568;6.998;2023-04-25T09:13:32;48.70;42.47;60.19;;
64996;Laerm;51545;51.568;6.998;2023-04-25T09:15:58;46.54;41.80;57.64;;
64996;Laerm;51545;51.568;6.998;2023-04-25T09:18:28;48.65;41.86;60.49;;
64996;Laerm;51545;51.568;6.998;2023-04-25T09:20:55;48.88;42.75;71.98;;
64996;Laerm;51545;51.568;6.998;2023-04-25T09:23:22;49.78;41.81;64.68;;
64996;Laerm;51545;51.568;6.998;2023-04-25T09:25:52;46.45;41.68;53.06;;
64996;Laerm;51545;51.568;6.998;2023-04-25T09:28:26;47.84;41.86;64.87;;
64996;Laerm;51545;51.568;6.998;2023-04-25T09:30:56;47.32;42.21;58.52;;
64996;Laerm;51545;51.568;6.998;2023-04-25T09:33:28;46.83;42.11;56.66;;
64996;Laerm;51545;51.568;6.998;2023-04-25T09:36:02;47.98;41.32;73.89;;
64996;Laerm;51545;51.568;6.998;2023-04-25T09:38:30;47.09;40.84;70.59;;
64996;Laerm;51545;51.568;6.998;2023-04-25T09:40:55;44.97;41.21;49.26;;
64996;Laerm;51545;51.568;6.998;2023-04-25T09:43:22;46.83;42.16;59.90;;
64996;Laerm;51545;51.568;6.998;2023-04-25T09:45:49;46.66;41.73;57.73;;
64996;Laerm;51545;51.568;6.998;2023-04-25T09:48:20;52.69;41.28;72.19;;
64996;Laerm;51545;51.568;6.998;2023-04-25T09:51:08;48.18;41.43;66.23;;
64996;Laerm;51545;51.568;6.998;2023-04-25T09:53:42;45.74;41.99;57.33;;
64996;Laerm;51545;51.568;6.998;2023-04-25T09:56:10;47.25;40.82;57.79;;
64996;Laerm;51545;51.568;6.998;2023-04-25T09:58:38;46.86;41.19;57.23;;
64996;Laerm;51545;51.568;6.998;2023-04-25T10:01:06;50.08;42.29;67.76;;
64996;Laerm;51545;51.568;6.998;2023-04-25T10:03:34;47.60;43.57;57.20;;
64996;Laerm;51545;51.568;6.998;2023-04-25T10:06:04;47.93;43.12;67.89;;
64996;Laerm;51545;51.568;6.998;2023-04-25T10:08:36;60.87;42.87;80.26;;
64996;Laerm;51545;51.568;6.998;2023-04-25T10:11:05;49.17;42.18;62.29;;
64996;Laerm;51545;51.568;6.998;2023-04-25T10:13:32;49.14;42.71;63.19;;
64996;Laerm;51545;51.568;6.998;2023-04-25T10:15:59;47.20;42.04;53.84;;
64996;Laerm;51545;51.568;6.998;2023-04-25T10:18:26;47.57;42.51;60.88;;
64996;Laerm;51545;51.568;6.998;2023-04-25T10:21:01;47.50;43.39;64.24;;
64996;Laerm;51545;51.568;6.998;2023-04-25T10:23:27;50.93;43.34;74.97;;
64996;Laerm;51545;51.568;6.998;2023-04-25T10:25:54;48.79;44.10;60.36;;
64996;Laerm;51545;51.568;6.998;2023-04-25T10:28:20;48.95;43.47;62.27;;
64996;Laerm;51545;51.568;6.998;2023-04-25T10:31:02;50.86;45.17;76.59;;
64996;Laerm;51545;51.568;6.998;2023-04-25T10:33:34;50.50;45.28;57.66;;
64996;Laerm;51545;51.568;6.998;2023-04-25T10:36:20;49.58;44.79;61.31;;
64996;Laerm;51545;51.568;6.998;2023-04-25T10:38:49;49.54;43.50;60.82;;
64996;Laerm;51545;51.568;6.998;2023-04-25T10:41:21;50.27;45.11;65.60;;
64996;Laerm;51545;51.568;6.998;2023-04-25T10:43:49;53.85;43.03;68.10;;
64996;Laerm;51545;51.568;6.998;2023-04-25T10:46:26;47.74;43.36;60.46;;
64996;Laerm;51545;51.568;6.998;2023-04-25T10:48:54;50.32;44.52;65.80;;
64996;Laerm;51545;51.568;6.998;2023-04-25T10:51:26;51.61;43.29;72.35;;
64996;Laerm;51545;51.568;6.998;2023-04-25T10:56:30;47.35;42.74;62.16;;
64996;Laerm;51545;51.568;6.998;2023-04-25T10:59:08;50.09;42.43;76.77;;
64996;Laerm;51545;51.568;6.998;2023-04-25T11:01:37;47.67;41.68;66.43;;
64996;Laerm;51545;51.568;6.998;2023-04-25T11:04:03;47.38;40.24;59.46;;
64996;Laerm;51545;51.568;6.998;2023-04-25T11:06:37;47.39;41.89;61.25;;
64996;Laerm;51545;51.568;6.998;2023-04-25T11:09:12;47.19;41.98;61.83;;
64996;Laerm;51545;51.568;6.998;2023-04-25T11:11:41;46.93;41.04;55.52;;
64996;Laerm;51545;51.568;6.998;2023-04-25T11:14:06;47.48;42.49;65.23;;
64996;Laerm;51545;51.568;6.998;2023-04-25T11:16:32;46.17;42.30;57.62;;
64996;Laerm;51545;51.568;6.998;2023-04-25T11:18:58;46.48;41.13;62.06;;
64996;Laerm;51545;51.568;6.998;2023-04-25T11:21:25;48.04;41.21;59.23;;
64996;Laerm;51545;51.568;6.998;2023-04-25T11:23:51;49.59;39.95;64.33;;
64996;Laerm;51545;51.568;6.998;2023-04-25T11:26:19;47.56;40.47;62.09;;
64996;Laerm;51545;51.568;6.998;2023-04-25T11:28:45;47.54;38.89;60.26;;
64996;Laerm;51545;51.568;6.998;2023-04-25T11:31:10;47.30;38.76;64.66;;
64996;Laerm;51545;51.568;6.998;2023-04-25T11:33:36;43.84;39.14;54.47;;
64996;Laerm;51545;51.568;6.998;2023-04-25T11:36:01;48.28;38.90;65.30;;
64996;Laerm;51545;51.568;6.998;2023-04-25T11:38:27;61.08;40.62;79.01;;
64996;Laerm;51545;51.568;6.998;2023-04-25T11:40:52;51.31;39.26;72.04;;
64996;Laerm;51545;51.568;6.998;2023-04-25T11:43:20;47.05;41.20;61.24;;
64996;Laerm;51545;51.568;6.998;2023-04-25T11:45:48;47.93;40.68;62.58;;
64996;Laerm;51545;51.568;6.998;2023-04-25T11:48:13;46.27;40.20;57.02;;
64996;Laerm;51545;51.568;6.998;2023-04-25T11:50:39;49.71;39.99;65.57;;
64996;Laerm;51545;51.568;6.998;2023-04-25T11:53:05;46.47;40.84;60.83;;
64996;Laerm;51545;51.568;6.998;2023-04-25T11:55:31;44.66;40.65;59.75;;
64996;Laerm;51545;51.568;6.998;2023-04-25T11:57:59;46.09;40.85;54.35;;
64996;Laerm;51545;51.568;6.998;2023-04-25T12:00:25;47.69;42.34;55.15;;
64996;Laerm;51545;51.568;6.998;2023-04-25T12:02:55;54.32;43.00;75.79;;
64996;Laerm;51545;51.568;6.998;2023-04-25T12:05:28;45.40;39.55;53.95;;
64996;Laerm;51545;51.568;6.998;2023-04-25T12:07:55;47.93;39.39;67.31;;
64996;Laerm;51545;51.568;6.998;2023-04-25T12:10:21;46.59;42.09;56.00;;
64996;Laerm;51545;51.568;6.998;2023-04-25T12:12:47;49.15;43.05;62.38;;
64996;Laerm;51545;51.568;6.998;2023-04-25T12:17:42;48.04;43.60;66.69;;
64996;Laerm;51545;51.568;6.998;2023-04-25T12:20:13;49.16;42.98;58.99;;
64996;Laerm;51545;51.568;6.998;2023-04-25T12:22:44;49.20;42.60;66.30;;
64996;Laerm;51545;51.568;6.998;2023-04-25T12:25:20;48.34;43.58;61.07;;
64996;Laerm;51545;51.568;6.998;2023-04-25T12:28:19;48.28;43.67;64.95;;
64996;Laerm;51545;51.568;6.998;2023-04-25T12:33:37;49.52;44.89;60.74;;
64996;Laerm;51545;51.568;6.998;2023-04-25T12:36:05;49.74;43.58;61.91;;
64996;Laerm;51545;51.568;6.998;2023-04-25T12:38:39;50.68;41.64;69.78;;
64996;Laerm;51545;51.568;6.998;2023-04-25T12:41:06;47.92;41.43;62.79;;
64996;Laerm;51545;51.568;6.998;2023-04-25T12:43:31;49.78;43.56;65.86;;
64996;Laerm;51545;51.568;6.998;2023-04-25T12:45:57;47.16;43.27;60.20;;
64996;Laerm;51545;51.568;6.998;2023-04-25T12:48:23;49.54;42.22;66.59;;
64996;Laerm;51545;51.568;6.998;2023-04-25T12:50:49;47.38;41.66;60.67;;
64996;Laerm;51545;51.568;6.998;2023-04-25T12:53:19;48.17;41.98;66.22;;
64996;Laerm;51545;51.568;6.998;2023-04-25T12:55:46;50.48;42.07;66.95;;
64996;Laerm;51545;51.568;6.998;2023-04-25T12:58:15;50.38;42.53;65.09;;
64996;Laerm;51545;51.568;6.998;2023-04-25T13:00:41;47.88;42.95;61.70;;
64996;Laerm;51545;51.568;6.998;2023-04-25T13:03:08;48.49;43.70;59.90;;
64996;Laerm;51545;51.568;6.998;2023-04-25T13:05:34;48.99;43.00;59.26;;
64996;Laerm;51545;51.568;6.998;2023-04-25T13:07:59;47.26;42.77;58.00;;
64996;Laerm;51545;51.568;6.998;2023-04-25T13:10:25;49.33;44.33;60.54;;
64996;Laerm;51545;51.568;6.998;2023-04-25T13:12:51;49.68;44.56;62.86;;
64996;Laerm;51545;51.568;6.998;2023-04-25T13:15:16;51.57;42.69;68.87;;
64996;Laerm;51545;51.568;6.998;2023-04-25T13:17:42;46.49;42.69;55.15;;
64996;Laerm;51545;51.568;6.998;2023-04-25T13:20:08;47.35;42.75;61.23;;
64996;Laerm;51545;51.568;6.998;2023-04-25T13:22:38;49.81;44.27;66.96;;
64996;Laerm;51545;51.568;6.998;2023-04-25T13:25:05;50.28;41.53;65.35;;
64996;Laerm;51545;51.568;6.998;2023-04-25T13:27:32;51.10;43.47;63.02;;
64996;Laerm;51545;51.568;6.998;2023-04-25T13:30:03;51.94;42.37;67.01;;
64996;Laerm;51545;51.568;6.998;2023-04-25T13:32:33;50.69;40.03;66.73;;
64996;Laerm;51545;51.568;6.998;2023-04-25T13:34:59;48.16;39.64;64.21;;
64996;Laerm;51545;51.568;6.998;2023-04-25T13:37:24;47.06;40.35;63.08;;
64996;Laerm;51545;51.568;6.998;2023-04-25T13:39:50;50.85;40.42;66.38;;
64996;Laerm;51545;51.568;6.998;2023-04-25T13:42:16;52.11;40.83;67.07;;
64996;Laerm;51545;51.568;6.998;2023-04-25T13:44:41;50.68;37.70;69.55;;
64996;Laerm;51545;51.568;6.998;2023-04-25T13:47:07;43.66;39.48;56.75;;
64996;Laerm;51545;51.568;6.998;2023-04-25T13:49:32;50.54;40.83;66.18;;